Pagina principale
METAR-TAF:

METAR-TAF

Aeroporti :

Bric della Croce

Torino, Italia

latitudine: 45-02N, longitudine: 007-44E, altezza: 709 m

Osservazione

Il bollettino è stato emesso 52 minuti fa, alle 06:55 UTC
Vento 4 kt da est/sud-est
Temperature 5°C
Umidità 100%
Pressione 1009 hPa
Visibilità: 0100 m
nebbia

METAR: LIMK 210655Z 11004KT 0100 FG VV/// 05/05 Q1009 RMK VAL INVIS VIS MIN 0100

Ora: 08:47 (07:47 UTC)


TAF: mancante

Osservazioni e previsioni meteorologiche di più di 4000 aeroporti (messaggi METAR e TAF).

Le stazioni disponibili sono rappresentate dai dischi gialli e rossi sulla carta.

Puntare il mouse per vedere il nome della stazione.

Clicca sopra per visualizzare le osservazioni e previsioni meteorologiche.

Per cambiare la mappa : fare clic sui pulsanti verdi con una croce nera per ingrandire, il pulsante verde con un trattino per diminuire, o sulla freccia verde per le mappe adiacenti.


METAR-TAF: